createdAt,value
2018-01-03T00:00:23.122Z,990.97
2018-01-03T00:01:23.048Z,991.01
2018-01-03T00:02:23.002Z,990.95
2018-01-03T00:03:22.964Z,990.82
2018-01-03T00:04:22.942Z,990.77
2018-01-03T00:05:22.891Z,990.63
2018-01-03T00:06:22.856Z,990.65
2018-01-03T00:07:22.822Z,990.67
2018-01-03T00:08:22.790Z,990.68
2018-01-03T00:09:22.756Z,990.68
2018-01-03T00:10:22.713Z,990.62
2018-01-03T00:11:22.662Z,990.63
2018-01-03T00:12:22.646Z,990.60
2018-01-03T00:13:22.613Z,990.48
2018-01-03T00:14:22.584Z,990.50
2018-01-03T00:15:22.515Z,990.43
2018-01-03T00:16:22.481Z,990.49
2018-01-03T00:17:22.466Z,990.43
2018-01-03T00:18:22.421Z,990.45
2018-01-03T00:19:22.361Z,990.35
2018-01-03T00:20:22.327Z,990.38
2018-01-03T00:21:22.282Z,990.32
2018-01-03T00:22:22.261Z,990.29
2018-01-03T00:23:22.220Z,990.15
2018-01-03T00:24:22.185Z,990.13
2018-01-03T00:25:22.153Z,990.18
2018-01-03T00:26:22.139Z,990.11
2018-01-03T00:27:22.079Z,990.17
2018-01-03T00:28:22.027Z,990.11
2018-01-03T00:29:21.978Z,990.12
2018-01-03T00:30:21.973Z,990.11
2018-01-03T00:31:21.908Z,990.13
2018-01-03T00:32:21.867Z,990.13
2018-01-03T00:33:21.829Z,990.02
2018-01-03T00:34:21.801Z,990.05
2018-01-03T00:35:21.754Z,990.10
2018-01-03T00:36:21.725Z,990.11
2018-01-03T00:37:21.708Z,990.01
2018-01-03T00:38:21.649Z,989.94
2018-01-03T00:39:21.638Z,989.75
2018-01-03T00:40:21.568Z,989.70
2018-01-03T00:41:22.785Z,989.58
2018-01-03T00:42:25.285Z,989.44
2018-01-03T00:43:21.610Z,989.38
2018-01-03T00:44:21.440Z,989.36
2018-01-03T00:45:21.406Z,989.34
2018-01-03T00:46:21.341Z,989.37
2018-01-03T00:47:21.312Z,989.27
2018-01-03T00:48:21.282Z,989.20
2018-01-03T00:49:21.619Z,989.23
2018-01-03T00:50:21.211Z,989.07
2018-01-03T00:51:21.155Z,989.00
2018-01-03T00:52:21.119Z,989.01
2018-01-03T00:53:21.101Z,988.85
2018-01-03T00:54:21.065Z,988.92
2018-01-03T00:55:21.009Z,988.72
2018-01-03T00:56:20.971Z,988.64
2018-01-03T00:57:20.952Z,988.77
2018-01-03T00:58:20.906Z,988.67
2018-01-03T00:59:20.862Z,988.59
2018-01-03T01:00:20.834Z,988.54
2018-01-03T01:01:20.791Z,988.53
2018-01-03T01:02:20.745Z,988.43
2018-01-03T01:03:20.730Z,988.36
2018-01-03T01:04:20.682Z,988.27
2018-01-03T01:05:20.635Z,988.25
2018-01-03T01:06:20.597Z,988.31
2018-01-03T01:07:20.554Z,988.28
2018-01-03T01:08:20.522Z,988.18
2018-01-03T01:09:20.486Z,988.11
2018-01-03T01:10:20.453Z,987.91
2018-01-03T01:11:20.523Z,987.81
2018-01-03T01:12:20.542Z,987.71
2018-01-03T01:13:20.330Z,987.47
2018-01-03T01:14:20.542Z,987.38
2018-01-03T01:15:20.267Z,987.37
2018-01-03T01:16:20.215Z,987.33
2018-01-03T01:17:20.188Z,987.30
2018-01-03T01:18:20.166Z,987.24
2018-01-03T01:19:20.107Z,987.21
2018-01-03T01:20:20.081Z,987.17
2018-01-03T01:21:20.034Z,987.15
2018-01-03T01:22:20.015Z,987.08
2018-01-03T01:23:19.954Z,987.08
2018-01-03T01:24:19.960Z,987.09
2018-01-03T01:25:19.885Z,986.91
2018-01-03T01:26:19.871Z,987.12
2018-01-03T01:27:19.808Z,986.99
2018-01-03T01:28:19.828Z,987.05
2018-01-03T01:29:19.838Z,987.01
2018-01-03T01:30:19.706Z,986.92
2018-01-03T01:31:19.659Z,986.95
2018-01-03T01:32:19.620Z,986.99
2018-01-03T01:33:19.588Z,987.02
2018-01-03T01:34:19.578Z,986.95
2018-01-03T01:35:19.507Z,986.92
2018-01-03T01:36:19.479Z,986.79
2018-01-03T01:37:19.446Z,986.77
2018-01-03T01:38:19.397Z,986.82
2018-01-03T01:39:19.378Z,986.83
2018-01-03T01:40:19.337Z,986.80
2018-01-03T01:41:19.286Z,986.89
2018-01-03T01:42:19.251Z,986.77
2018-01-03T01:43:19.228Z,986.64
2018-01-03T01:44:19.177Z,986.55
2018-01-03T01:45:19.146Z,986.37
2018-01-03T01:46:19.424Z,986.32
2018-01-03T01:47:19.073Z,986.17
2018-01-03T01:48:19.042Z,986.13
2018-01-03T01:49:18.993Z,986.15
2018-01-03T01:50:19.000Z,986.03
2018-01-03T01:51:18.919Z,985.99
2018-01-03T01:52:18.878Z,985.90
2018-01-03T01:53:18.841Z,985.79
2018-01-03T01:54:18.820Z,985.52
2018-01-03T01:55:18.784Z,985.47
2018-01-03T01:56:18.769Z,985.41
2018-01-03T01:57:18.719Z,985.09
2018-01-03T01:58:18.682Z,985.26
2018-01-03T01:59:18.631Z,985.24
2018-01-03T02:00:18.585Z,985.19
2018-01-03T02:01:18.567Z,985.11
2018-01-03T02:02:18.527Z,985.05
2018-01-03T02:03:18.478Z,984.76
2018-01-03T02:04:18.446Z,984.77
2018-01-03T02:05:18.415Z,984.77
2018-01-03T02:06:18.367Z,984.62
2018-01-03T02:07:18.334Z,984.41
2018-01-03T02:08:18.304Z,984.46
2018-01-03T02:09:18.249Z,984.30
2018-01-03T02:10:18.379Z,984.13
2018-01-03T02:11:18.188Z,984.12
2018-01-03T02:12:18.145Z,984.01
2018-01-03T02:13:18.102Z,984.01
2018-01-03T02:14:18.066Z,983.81
2018-01-03T02:15:18.061Z,983.74
2018-01-03T02:16:18.011Z,983.56
2018-01-03T02:17:17.959Z,983.66
2018-01-03T02:18:17.944Z,983.61
2018-01-03T02:19:18.372Z,983.57
2018-01-03T02:20:17.845Z,983.42
2018-01-03T02:21:17.847Z,983.33
2018-01-03T02:22:17.787Z,983.28
2018-01-03T02:23:17.733Z,983.36
2018-01-03T02:24:17.716Z,983.09
2018-01-03T02:25:17.675Z,983.13
2018-01-03T02:26:17.670Z,983.16
2018-01-03T02:27:17.587Z,983.01
2018-01-03T02:28:17.617Z,982.85
2018-01-03T02:29:17.513Z,982.98
2018-01-03T02:30:17.497Z,982.83
2018-01-03T02:31:17.457Z,982.61
2018-01-03T02:32:17.399Z,982.69
2018-01-03T02:33:17.393Z,982.71
2018-01-03T02:34:17.346Z,982.48
2018-01-03T02:35:17.294Z,982.62
2018-01-03T02:36:17.276Z,982.54
2018-01-03T02:37:17.239Z,982.44
2018-01-03T02:38:17.178Z,982.32
2018-01-03T02:39:17.176Z,982.32
2018-01-03T02:40:17.109Z,981.95
2018-01-03T02:41:17.070Z,982.18
2018-01-03T02:42:17.079Z,981.98
2018-01-03T02:43:17.021Z,982.07
2018-01-03T02:44:16.988Z,981.95
2018-01-03T02:45:16.929Z,981.95
2018-01-03T02:46:17.310Z,981.84
2018-01-03T02:47:16.850Z,981.85
2018-01-03T02:48:16.816Z,981.85
2018-01-03T02:49:16.829Z,981.86
2018-01-03T02:50:16.744Z,981.51
2018-01-03T02:51:16.706Z,981.60
2018-01-03T02:52:16.688Z,981.64
2018-01-03T02:53:16.638Z,981.73
2018-01-03T02:54:16.612Z,981.57
2018-01-03T02:55:16.620Z,981.54
2018-01-03T02:56:16.571Z,981.59
2018-01-03T02:57:16.509Z,981.46
2018-01-03T02:58:16.632Z,981.28
2018-01-03T02:59:16.435Z,981.22
2018-01-03T03:00:16.390Z,981.15
2018-01-03T03:01:16.371Z,981.33
2018-01-03T03:02:16.313Z,981.35
2018-01-03T03:03:16.473Z,981.21
2018-01-03T03:04:16.251Z,981.05
2018-01-03T03:05:16.199Z,981.00
2018-01-03T03:06:16.185Z,981.08
2018-01-03T03:07:16.168Z,980.91
2018-01-03T03:08:16.420Z,980.86
2018-01-03T03:09:16.097Z,980.73
2018-01-03T03:10:16.227Z,980.86
2018-01-03T03:11:15.982Z,980.71
2018-01-03T03:12:15.980Z,980.43
2018-01-03T03:13:15.919Z,980.27
2018-01-03T03:14:15.883Z,980.26
2018-01-03T03:15:15.837Z,980.47
2018-01-03T03:16:16.226Z,980.37
2018-01-03T03:17:15.767Z,980.29
2018-01-03T03:18:15.732Z,980.19
2018-01-03T03:19:16.236Z,980.22
2018-01-03T03:20:15.661Z,979.83
2018-01-03T03:21:15.703Z,980.08
2018-01-03T03:22:16.524Z,979.97
2018-01-03T03:23:15.551Z,979.77
2018-01-03T03:24:15.517Z,979.67
2018-01-03T03:25:15.482Z,979.56
2018-01-03T03:26:15.444Z,979.41
2018-01-03T03:27:15.415Z,979.27
2018-01-03T03:28:15.374Z,979.58
2018-01-03T03:29:15.353Z,979.67
2018-01-03T03:30:15.322Z,979.86
2018-01-03T03:31:15.309Z,979.54
2018-01-03T03:32:15.255Z,979.61
2018-01-03T03:33:15.210Z,979.40
2018-01-03T03:34:15.163Z,979.45
2018-01-03T03:35:15.148Z,979.32
2018-01-03T03:36:15.088Z,979.11
2018-01-03T03:37:15.065Z,979.29
2018-01-03T03:38:15.015Z,979.07
2018-01-03T03:39:14.984Z,979.06
2018-01-03T03:40:14.946Z,979.01
2018-01-03T03:41:14.950Z,979.08
2018-01-03T03:42:14.875Z,978.74
2018-01-03T03:43:14.837Z,978.72
2018-01-03T03:44:15.108Z,978.78
2018-01-03T03:45:14.766Z,978.85
2018-01-03T03:46:14.731Z,978.81
2018-01-03T03:47:14.713Z,978.91
2018-01-03T03:48:14.681Z,979.00
2018-01-03T03:49:14.622Z,978.81
2018-01-03T03:50:14.602Z,978.83
2018-01-03T03:51:14.582Z,978.78
2018-01-03T03:52:14.554Z,978.67
2018-01-03T03:53:14.535Z,978.63
2018-01-03T03:54:14.443Z,978.66
2018-01-03T03:55:14.409Z,978.44
2018-01-03T03:56:14.374Z,978.60
2018-01-03T03:57:14.340Z,978.32
2018-01-03T03:58:14.314Z,978.39
2018-01-03T03:59:14.264Z,978.49
2018-01-03T04:00:14.233Z,978.32
2018-01-03T04:01:14.208Z,978.32
2018-01-03T04:02:14.162Z,978.44
2018-01-03T04:03:14.126Z,978.47
2018-01-03T04:04:14.094Z,978.47
2018-01-03T04:05:14.723Z,978.47
2018-01-03T04:06:14.029Z,978.32
2018-01-03T04:07:14.007Z,978.34
2018-01-03T04:08:13.982Z,978.18
2018-01-03T04:09:13.916Z,978.28
2018-01-03T04:10:13.887Z,978.18
2018-01-03T04:11:13.842Z,978.19
2018-01-03T04:12:13.804Z,978.02
2018-01-03T04:13:13.769Z,978.03
2018-01-03T04:14:13.735Z,978.10
2018-01-03T04:15:13.697Z,978.01
2018-01-03T04:16:13.668Z,978.03
2018-01-03T04:17:13.628Z,978.17
2018-01-03T04:18:13.594Z,978.02
2018-01-03T04:19:13.556Z,977.87
2018-01-03T04:20:13.563Z,978.23
2018-01-03T04:21:13.489Z,978.17
2018-01-03T04:22:13.505Z,978.47
2018-01-03T04:23:13.414Z,978.23
2018-01-03T04:24:13.379Z,978.37
2018-01-03T04:25:14.311Z,978.78
2018-01-03T04:26:13.797Z,978.30
2018-01-03T04:27:13.274Z,979.39
2018-01-03T04:28:13.797Z,979.58
2018-01-03T04:29:13.201Z,979.79
2018-01-03T04:30:13.166Z,979.58
2018-01-03T04:31:13.814Z,979.87
2018-01-03T04:32:13.114Z,980.04
2018-01-03T04:33:13.110Z,979.60
2018-01-03T04:34:13.020Z,979.73
2018-01-03T04:35:13.006Z,980.47
2018-01-03T04:36:12.946Z,979.84
2018-01-03T04:37:12.936Z,979.95
2018-01-03T04:38:12.876Z,980.26
2018-01-03T04:39:12.842Z,980.07
2018-01-03T04:40:12.805Z,980.12
2018-01-03T04:41:12.768Z,980.10
2018-01-03T04:42:12.749Z,979.60
2018-01-03T04:43:12.693Z,979.57
2018-01-03T04:44:12.656Z,979.94
2018-01-03T04:45:12.629Z,979.78
2018-01-03T04:46:12.611Z,979.60
2018-01-03T04:47:12.542Z,979.62
2018-01-03T04:48:12.509Z,979.67
2018-01-03T04:49:12.469Z,979.49
2018-01-03T04:50:12.435Z,979.26
2018-01-03T04:51:12.398Z,979.04
2018-01-03T04:52:13.165Z,979.29
2018-01-03T04:53:12.324Z,979.44
2018-01-03T04:54:12.285Z,979.30
2018-01-03T04:55:12.260Z,978.97
2018-01-03T04:56:12.213Z,979.35
2018-01-03T04:57:12.198Z,979.18
2018-01-03T04:58:12.171Z,979.07
2018-01-03T04:59:12.104Z,978.88
2018-01-03T05:00:12.065Z,979.10
2018-01-03T05:01:12.031Z,979.04
2018-01-03T05:02:11.995Z,978.98
2018-01-03T05:03:11.955Z,978.74
2018-01-03T05:04:11.919Z,979.16
2018-01-03T05:05:11.882Z,979.01
2018-01-03T05:06:11.866Z,978.66
2018-01-03T05:07:11.811Z,979.17
2018-01-03T05:08:11.768Z,979.59
2018-01-03T05:09:11.734Z,979.64
2018-01-03T05:10:11.698Z,979.51
2018-01-03T05:11:11.660Z,979.55
2018-01-03T05:12:11.632Z,979.28
2018-01-03T05:13:11.590Z,979.76
2018-01-03T05:14:11.549Z,979.72
2018-01-03T05:15:11.513Z,979.70
2018-01-03T05:16:11.478Z,979.70
2018-01-03T05:17:11.443Z,979.65
2018-01-03T05:18:11.402Z,979.75
2018-01-03T05:19:11.367Z,979.73
2018-01-03T05:20:11.328Z,979.36
2018-01-03T05:21:11.299Z,979.87
2018-01-03T05:22:11.257Z,979.83
2018-01-03T05:23:11.227Z,979.49
2018-01-03T05:24:11.202Z,979.85
2018-01-03T05:25:11.155Z,979.74
2018-01-03T05:26:11.124Z,979.76
2018-01-03T05:27:11.074Z,979.71
2018-01-03T05:28:11.032Z,979.65
2018-01-03T05:29:10.998Z,979.79
2018-01-03T05:30:10.963Z,979.74
2018-01-03T05:31:10.944Z,979.74
2018-01-03T05:32:10.901Z,979.81
2018-01-03T05:33:10.853Z,979.86
2018-01-03T05:34:10.815Z,979.68
2018-01-03T05:35:10.781Z,979.44
2018-01-03T05:36:10.741Z,979.75
2018-01-03T05:37:10.724Z,979.50
2018-01-03T05:38:10.672Z,979.60
2018-01-03T05:39:10.633Z,980.01
2018-01-03T05:40:10.607Z,979.90
2018-01-03T05:41:10.564Z,979.89
2018-01-03T05:42:10.523Z,979.98
2018-01-03T05:43:10.488Z,979.98
2018-01-03T05:44:10.450Z,979.95
2018-01-03T05:45:10.416Z,979.74
2018-01-03T05:46:10.377Z,979.89
2018-01-03T05:47:10.339Z,979.58
2018-01-03T05:48:10.320Z,979.74
2018-01-03T05:49:10.268Z,979.91
2018-01-03T05:50:10.232Z,980.15
2018-01-03T05:51:10.192Z,979.90
2018-01-03T05:52:10.173Z,979.61
2018-01-03T05:53:10.121Z,979.72
2018-01-03T05:54:10.109Z,979.93
2018-01-03T05:55:10.051Z,979.73
2018-01-03T05:56:10.013Z,979.88
2018-01-03T05:57:09.977Z,979.58
2018-01-03T05:58:09.957Z,980.00
2018-01-03T05:59:09.900Z,979.67
2018-01-03T06:00:09.867Z,979.74
2018-01-03T06:01:09.832Z,979.70
2018-01-03T06:02:09.798Z,979.79
2018-01-03T06:03:10.135Z,979.59
2018-01-03T06:04:09.720Z,979.57
2018-01-03T06:05:09.685Z,979.65
2018-01-03T06:06:09.678Z,979.55
2018-01-03T06:07:09.619Z,979.40
2018-01-03T06:08:09.609Z,979.41
2018-01-03T06:09:09.538Z,979.57
2018-01-03T06:10:09.507Z,979.63
2018-01-03T06:11:09.491Z,979.25
2018-01-03T06:12:09.426Z,979.57
2018-01-03T06:13:09.390Z,979.56
2018-01-03T06:14:09.360Z,979.46
2018-01-03T06:15:09.320Z,979.53
2018-01-03T06:16:09.337Z,979.55
2018-01-03T06:17:09.242Z,979.55
2018-01-03T06:18:09.271Z,979.42
2018-01-03T06:19:09.197Z,979.02
2018-01-03T06:20:09.142Z,979.35
2018-01-03T06:21:09.305Z,979.44
2018-01-03T06:22:09.080Z,979.37
2018-01-03T06:23:09.028Z,979.56
2018-01-03T06:24:08.991Z,979.31
2018-01-03T06:25:08.956Z,979.25
2018-01-03T06:26:08.919Z,979.18
2018-01-03T06:27:08.884Z,978.97
2018-01-03T06:28:08.842Z,979.38
2018-01-03T06:29:08.810Z,979.39
2018-01-03T06:30:08.773Z,979.42
2018-01-03T06:31:08.738Z,979.42
2018-01-03T06:32:08.700Z,979.55
2018-01-03T06:33:08.664Z,979.32
2018-01-03T06:34:08.628Z,979.64
2018-01-03T06:35:08.591Z,979.71
2018-01-03T06:36:08.842Z,979.52
2018-01-03T06:37:08.527Z,979.46
2018-01-03T06:38:08.484Z,979.35
2018-01-03T06:39:08.452Z,979.38
2018-01-03T06:40:08.413Z,979.60
2018-01-03T06:41:08.373Z,979.41
2018-01-03T06:42:08.336Z,979.37
2018-01-03T06:43:08.300Z,979.27
2018-01-03T06:44:08.284Z,979.12
2018-01-03T06:45:08.226Z,979.28
2018-01-03T06:46:08.189Z,978.76
2018-01-03T06:47:08.160Z,979.24
2018-01-03T06:48:08.118Z,979.04
2018-01-03T06:49:08.080Z,978.89
2018-01-03T06:50:08.047Z,979.23
2018-01-03T06:51:08.010Z,979.00
2018-01-03T06:52:07.972Z,978.88
2018-01-03T06:53:07.935Z,978.86
2018-01-03T06:54:07.900Z,979.11
2018-01-03T06:55:07.861Z,978.93
2018-01-03T06:56:07.825Z,979.03
2018-01-03T06:57:07.792Z,978.14
2018-01-03T06:58:07.757Z,978.83
2018-01-03T06:59:07.717Z,978.71
2018-01-03T07:00:07.682Z,978.66
2018-01-03T07:01:08.162Z,978.96
2018-01-03T07:02:07.610Z,978.52
2018-01-03T07:03:08.449Z,978.75
2018-01-03T07:04:07.537Z,978.92
2018-01-03T07:05:07.501Z,978.84
2018-01-03T07:06:07.463Z,978.77
2018-01-03T07:07:07.428Z,978.82
2018-01-03T07:08:07.389Z,978.74
2018-01-03T07:09:07.362Z,979.03
2018-01-03T07:10:07.317Z,978.86
2018-01-03T07:11:07.279Z,978.51
2018-01-03T07:12:07.244Z,979.13
2018-01-03T07:13:07.208Z,978.73
2018-01-03T07:14:07.172Z,978.80
2018-01-03T07:15:07.132Z,978.66
2018-01-03T07:16:07.100Z,978.75
2018-01-03T07:17:07.062Z,978.56
2018-01-03T07:18:07.024Z,978.69
2018-01-03T07:19:06.988Z,978.76
2018-01-03T07:20:06.982Z,978.87
2018-01-03T07:21:06.914Z,979.21
2018-01-03T07:22:06.877Z,978.53
2018-01-03T07:23:06.842Z,978.84
2018-01-03T07:24:06.805Z,979.00
2018-01-03T07:25:06.767Z,979.03
2018-01-03T07:26:06.731Z,979.06
2018-01-03T07:27:06.695Z,979.19
2018-01-03T07:28:06.800Z,979.20
2018-01-03T07:29:06.620Z,978.81
2018-01-03T07:30:06.584Z,978.99
2018-01-03T07:31:06.553Z,979.05
2018-01-03T07:32:06.511Z,979.42
2018-01-03T07:33:06.477Z,979.23
2018-01-03T07:34:06.439Z,979.18
2018-01-03T07:35:06.403Z,979.23
2018-01-03T07:36:06.366Z,979.72
2018-01-03T07:37:06.327Z,979.49
2018-01-03T07:38:06.294Z,979.59
2018-01-03T07:39:06.258Z,979.69
2018-01-03T07:40:06.221Z,979.36
2018-01-03T07:41:06.184Z,979.67
2018-01-03T07:42:06.145Z,979.21
2018-01-03T07:43:06.112Z,978.98
2018-01-03T07:44:06.072Z,979.79
2018-01-03T07:45:06.039Z,979.25
2018-01-03T07:46:06.001Z,979.34
2018-01-03T07:47:05.962Z,979.46
2018-01-03T07:48:05.924Z,979.83
2018-01-03T07:49:05.890Z,979.61
2018-01-03T07:50:05.854Z,979.60
2018-01-03T07:51:05.814Z,979.88
2018-01-03T07:52:05.781Z,979.90
2018-01-03T07:53:05.743Z,979.53
2018-01-03T07:54:05.708Z,979.97
2018-01-03T07:55:05.665Z,980.12
2018-01-03T07:56:05.634Z,979.72
2018-01-03T07:57:05.596Z,979.90
2018-01-03T07:58:05.564Z,979.83
2018-01-03T07:59:05.523Z,980.28
2018-01-03T08:00:05.487Z,980.44
2018-01-03T08:01:05.451Z,979.49
2018-01-03T08:02:05.413Z,979.92
2018-01-03T08:03:05.377Z,980.24
2018-01-03T08:04:05.674Z,980.35
2018-01-03T08:05:05.597Z,980.19
2018-01-03T08:06:05.267Z,979.97
2018-01-03T08:07:05.229Z,980.18
2018-01-03T08:08:05.194Z,980.02
2018-01-03T08:09:05.156Z,980.22
2018-01-03T08:10:06.032Z,979.94
2018-01-03T08:11:05.085Z,980.41
2018-01-03T08:12:05.046Z,980.14
2018-01-03T08:13:05.042Z,980.15
2018-01-03T08:14:04.973Z,980.32
2018-01-03T08:15:04.935Z,980.02
2018-01-03T08:16:04.901Z,980.39
2018-01-03T08:17:04.863Z,980.12
2018-01-03T08:18:05.048Z,980.39
2018-01-03T08:19:04.788Z,980.37
2018-01-03T08:20:05.312Z,980.23
2018-01-03T08:21:04.715Z,980.01
2018-01-03T08:22:04.679Z,980.26
2018-01-03T08:23:04.642Z,980.23
2018-01-03T08:24:04.605Z,980.03
2018-01-03T08:25:04.573Z,979.89
2018-01-03T08:26:04.559Z,979.60
2018-01-03T08:27:04.495Z,980.17
2018-01-03T08:28:04.457Z,980.20
2018-01-03T08:29:04.421Z,979.97
2018-01-03T08:30:04.385Z,980.35
2018-01-03T08:31:04.347Z,980.37
2018-01-03T08:32:04.310Z,980.26
2018-01-03T08:33:04.275Z,980.15
2018-01-03T08:34:04.236Z,980.23
2018-01-03T08:35:04.210Z,980.48
2018-01-03T08:36:04.165Z,980.25
2018-01-03T08:37:04.125Z,980.19
2018-01-03T08:38:04.091Z,980.17
2018-01-03T08:39:04.051Z,980.59
2018-01-03T08:40:04.014Z,980.69
2018-01-03T08:41:03.977Z,980.17
2018-01-03T08:42:03.960Z,980.27
2018-01-03T08:43:03.904Z,980.22
2018-01-03T08:44:03.865Z,980.52
2018-01-03T08:45:03.830Z,980.66
2018-01-03T08:46:03.792Z,980.75
2018-01-03T08:47:03.756Z,980.91
2018-01-03T08:48:03.719Z,980.68
2018-01-03T08:49:03.682Z,980.63
2018-01-03T08:50:03.643Z,980.86
2018-01-03T08:51:03.606Z,980.97
2018-01-03T08:52:03.569Z,981.09
2018-01-03T08:53:03.530Z,980.37
2018-01-03T08:54:03.494Z,981.08
2018-01-03T08:55:03.454Z,980.59
2018-01-03T08:56:03.421Z,981.06
2018-01-03T08:57:03.382Z,980.87
2018-01-03T08:58:03.344Z,980.34
2018-01-03T08:59:03.305Z,980.90
2018-01-03T09:00:03.269Z,981.21
2018-01-03T09:01:03.234Z,981.30
2018-01-03T09:02:03.192Z,981.24
2018-01-03T09:03:03.155Z,980.98
2018-01-03T09:04:03.118Z,981.06
2018-01-03T09:05:03.079Z,981.26
2018-01-03T09:06:03.044Z,981.23
2018-01-03T09:07:03.008Z,981.64
2018-01-03T09:08:02.969Z,981.40
2018-01-03T09:09:02.933Z,981.53
2018-01-03T09:10:02.895Z,981.68
2018-01-03T09:11:02.859Z,981.70
2018-01-03T09:12:02.822Z,981.48
2018-01-03T09:13:02.782Z,981.52
2018-01-03T09:14:02.743Z,981.65
2018-01-03T09:15:02.704Z,981.57
2018-01-03T09:16:02.669Z,981.68
2018-01-03T09:17:02.632Z,981.69
2018-01-03T09:18:02.592Z,981.94
2018-01-03T09:19:02.558Z,981.89
2018-01-03T09:20:02.523Z,981.83
2018-01-03T09:21:02.481Z,981.72
2018-01-03T09:22:02.443Z,981.65
2018-01-03T09:23:02.408Z,981.98
2018-01-03T09:24:02.413Z,982.25
2018-01-03T09:25:02.334Z,982.00
2018-01-03T09:26:02.295Z,982.26
2018-01-03T09:27:02.259Z,982.16
2018-01-03T09:28:02.219Z,981.79
2018-01-03T09:29:02.183Z,982.02
2018-01-03T09:30:02.154Z,981.96
2018-01-03T09:31:02.111Z,981.70
2018-01-03T09:32:02.436Z,982.30
2018-01-03T09:33:02.041Z,982.05
2018-01-03T09:34:02.438Z,982.37
2018-01-03T09:35:01.969Z,982.16
2018-01-03T09:36:01.937Z,982.55
2018-01-03T09:37:01.904Z,981.95
2018-01-03T09:38:01.874Z,982.17
2018-01-03T09:39:01.839Z,982.09
2018-01-03T09:40:01.805Z,982.16
2018-01-03T09:41:01.794Z,982.01
2018-01-03T09:42:01.742Z,981.81
2018-01-03T09:43:01.710Z,982.17
2018-01-03T09:44:01.675Z,982.34
2018-01-03T09:45:01.643Z,982.43
2018-01-03T09:46:01.800Z,982.50
2018-01-03T09:47:01.810Z,982.25
2018-01-03T09:48:01.542Z,981.83
2018-01-03T09:49:01.513Z,982.36
2018-01-03T09:50:01.474Z,982.28
2018-01-03T09:51:01.437Z,982.29
2018-01-03T09:52:01.402Z,982.62
2018-01-03T09:53:01.367Z,982.64
2018-01-03T09:54:01.336Z,982.43
2018-01-03T09:55:01.298Z,982.54
2018-01-03T09:56:01.262Z,982.83
2018-01-03T09:57:01.460Z,982.68
2018-01-03T09:58:01.193Z,982.53
2018-01-03T09:59:01.161Z,982.88
2018-01-03T10:00:01.126Z,982.63
2018-01-03T10:01:01.090Z,982.90
2018-01-03T10:02:01.053Z,982.62
2018-01-03T10:03:01.026Z,982.78
2018-01-03T10:04:00.983Z,982.34
2018-01-03T10:05:00.949Z,982.83
2018-01-03T10:06:00.916Z,982.88
2018-01-03T10:07:00.936Z,982.86
2018-01-03T10:08:00.847Z,982.65
2018-01-03T10:09:00.811Z,983.02
2018-01-03T10:10:00.780Z,982.93
2018-01-03T10:11:00.746Z,983.30
2018-01-03T10:12:00.717Z,982.91
2018-01-03T10:13:00.684Z,983.00
2018-01-03T10:14:00.651Z,982.03
2018-01-03T10:15:00.621Z,983.03
2018-01-03T10:16:00.588Z,982.89
2018-01-03T10:17:00.558Z,982.92
2018-01-03T10:18:00.523Z,983.08
2018-01-03T10:19:00.492Z,982.62
2018-01-03T10:20:00.455Z,982.81
2018-01-03T10:21:01.010Z,983.21
2018-01-03T10:22:00.392Z,983.53
2018-01-03T10:23:00.358Z,982.70
2018-01-03T10:24:00.326Z,983.25
2018-01-03T10:25:00.298Z,982.83
2018-01-03T10:26:00.262Z,983.11
2018-01-03T10:27:00.226Z,983.10
2018-01-03T10:28:00.193Z,982.58
2018-01-03T10:29:00.163Z,982.90
2018-01-03T10:30:00.132Z,982.66
2018-01-03T10:31:00.094Z,982.83
2018-01-03T10:32:00.077Z,982.88
2018-01-03T10:33:00.028Z,983.05
2018-01-03T10:33:59.991Z,982.62
2018-01-03T10:34:59.962Z,982.93
2018-01-03T10:35:59.921Z,983.23
2018-01-03T10:36:59.887Z,982.96
2018-01-03T10:37:59.854Z,982.69
2018-01-03T10:38:59.814Z,983.05
2018-01-03T10:40:02.408Z,982.66
2018-01-03T10:40:59.744Z,983.05
2018-01-03T10:41:59.712Z,983.16
2018-01-03T10:42:59.672Z,983.04
2018-01-03T10:43:59.635Z,982.80
2018-01-03T10:44:59.602Z,983.07
2018-01-03T10:45:59.565Z,982.99
2018-01-03T10:46:59.526Z,982.82
2018-01-03T10:47:59.490Z,982.94
2018-01-03T10:48:59.452Z,983.15
2018-01-03T10:49:59.479Z,982.72
2018-01-03T10:50:59.379Z,983.17
2018-01-03T10:51:59.342Z,983.41
2018-01-03T10:52:59.308Z,982.82
2018-01-03T10:53:59.269Z,982.88
2018-01-03T10:54:59.232Z,983.00
2018-01-03T10:55:59.195Z,982.86
2018-01-03T10:56:59.158Z,983.12
2018-01-03T10:57:59.123Z,982.98
2018-01-03T10:58:59.086Z,983.25
2018-01-03T10:59:59.047Z,982.81
2018-01-03T11:00:59.012Z,983.40
2018-01-03T11:01:58.975Z,983.26
2018-01-03T11:02:58.938Z,983.09
2018-01-03T11:03:58.899Z,983.14
2018-01-03T11:04:58.865Z,982.62
2018-01-03T11:05:58.824Z,983.51
2018-01-03T11:06:58.788Z,983.13
2018-01-03T11:07:58.749Z,983.31
2018-01-03T11:08:58.716Z,983.26
2018-01-03T11:09:58.680Z,982.96
2018-01-03T11:10:58.644Z,982.90
2018-01-03T11:11:58.602Z,982.90
2018-01-03T11:12:58.565Z,983.24
2018-01-03T11:13:58.531Z,983.22
2018-01-03T11:14:58.491Z,983.21
2018-01-03T11:15:58.456Z,983.02
2018-01-03T11:16:58.420Z,983.88
2018-01-03T11:17:58.382Z,983.34
2018-01-03T11:18:58.344Z,983.71
2018-01-03T11:19:58.307Z,983.60
2018-01-03T11:20:58.270Z,983.09
2018-01-03T11:21:58.232Z,983.80
2018-01-03T11:22:58.656Z,983.17
2018-01-03T11:23:58.158Z,983.24
2018-01-03T11:24:58.121Z,983.65
2018-01-03T11:25:58.084Z,982.17
2018-01-03T11:26:58.048Z,982.97
2018-01-03T11:27:58.011Z,982.64
2018-01-03T11:28:57.971Z,983.62
2018-01-03T11:29:57.937Z,982.57
2018-01-03T11:30:57.897Z,982.51
2018-01-03T11:31:57.861Z,983.49
2018-01-03T11:32:57.832Z,982.89
2018-01-03T11:33:57.789Z,983.19
2018-01-03T11:34:57.750Z,983.49
2018-01-03T11:35:57.802Z,983.39
2018-01-03T11:36:57.677Z,983.86
2018-01-03T11:37:57.640Z,984.08
2018-01-03T11:38:57.601Z,983.77
2018-01-03T11:39:57.564Z,983.57
2018-01-03T11:40:57.527Z,983.70
2018-01-03T11:41:57.489Z,983.87
2018-01-03T11:42:57.451Z,984.00
2018-01-03T11:43:57.417Z,983.67
2018-01-03T11:44:57.377Z,983.52
2018-01-03T11:45:57.344Z,983.39
2018-01-03T11:46:57.303Z,983.04
2018-01-03T11:47:57.266Z,984.15
2018-01-03T11:48:57.248Z,983.70
2018-01-03T11:49:57.192Z,984.16
2018-01-03T11:50:57.152Z,984.07
2018-01-03T11:51:57.227Z,983.96
2018-01-03T11:52:57.079Z,983.81
2018-01-03T11:53:57.042Z,983.50
2018-01-03T11:54:57.006Z,984.33
2018-01-03T11:55:57.228Z,984.24
2018-01-03T11:56:57.230Z,984.15
2018-01-03T11:57:56.893Z,984.21
2018-01-03T11:58:56.856Z,984.06
2018-01-03T11:59:56.817Z,984.19
2018-01-03T12:00:57.278Z,983.35
2018-01-03T12:01:56.743Z,983.95
2018-01-03T12:02:56.703Z,983.04
2018-01-03T12:03:56.665Z,984.06
2018-01-03T12:04:56.628Z,984.26
2018-01-03T12:05:56.592Z,984.26
2018-01-03T12:06:56.555Z,984.25
2018-01-03T12:07:56.515Z,984.12
2018-01-03T12:08:56.479Z,984.40
2018-01-03T12:09:56.441Z,984.26
2018-01-03T12:10:56.405Z,984.42
2018-01-03T12:11:56.364Z,984.32
2018-01-03T12:12:56.328Z,984.37
2018-01-03T12:13:56.290Z,983.93
2018-01-03T12:14:56.252Z,984.52
2018-01-03T12:15:56.215Z,984.38
2018-01-03T12:16:56.180Z,984.59
2018-01-03T12:17:56.140Z,984.65
2018-01-03T12:18:56.103Z,984.69
2018-01-03T12:19:56.561Z,984.73
2018-01-03T12:20:56.030Z,984.96
2018-01-03T12:21:55.991Z,983.85
2018-01-03T12:22:55.955Z,984.88
2018-01-03T12:23:55.913Z,985.04
2018-01-03T12:24:55.879Z,984.93
2018-01-03T12:25:55.841Z,985.05
2018-01-03T12:26:55.812Z,984.65
2018-01-03T12:27:55.768Z,984.79